createdAt,value
2018-07-04T00:02:00.917Z,3.00
2018-07-04T00:04:55.829Z,2.47
2018-07-04T00:07:50.906Z,2.53
2018-07-04T00:10:46.461Z,2.40
2018-07-04T00:13:42.386Z,2.57
2018-07-04T00:16:37.701Z,2.70
2018-07-04T00:19:34.483Z,2.10
2018-07-04T00:22:29.927Z,2.30
2018-07-04T00:25:25.457Z,2.53
2018-07-04T00:28:23.226Z,3.17
2018-07-04T00:31:18.910Z,2.23
2018-07-04T00:34:14.042Z,2.23
2018-07-04T00:37:09.120Z,2.60
2018-07-04T00:40:04.302Z,2.47
2018-07-04T00:42:59.590Z,2.60
2018-07-04T00:45:55.267Z,2.47
2018-07-04T00:48:50.209Z,2.67
2018-07-04T00:51:45.478Z,2.17
2018-07-04T00:54:40.734Z,2.00
2018-07-04T00:57:36.971Z,2.07
2018-07-04T01:00:33.617Z,2.50
2018-07-04T01:03:28.806Z,2.50
2018-07-04T01:06:23.730Z,1.97
2018-07-04T01:09:20.217Z,2.30
2018-07-04T01:12:15.370Z,2.30
2018-07-04T01:15:10.526Z,2.30
2018-07-04T01:18:06.705Z,2.00
2018-07-04T01:21:07.152Z,2.00
2018-07-04T01:24:02.026Z,2.30
2018-07-04T01:26:57.336Z,2.37
2018-07-04T01:29:52.429Z,2.10
2018-07-04T01:32:47.355Z,1.80
2018-07-04T01:35:42.657Z,2.30
2018-07-04T01:38:37.557Z,2.35
2018-07-04T01:41:33.899Z,2.90
2018-07-04T01:44:29.253Z,1.90
2018-07-04T01:47:24.286Z,2.10
2018-07-04T01:50:20.803Z,2.47
2018-07-04T01:53:15.954Z,2.28
2018-07-04T01:56:10.856Z,2.70
2018-07-04T01:59:05.717Z,2.28
2018-07-04T02:02:00.871Z,2.00
2018-07-04T02:04:55.725Z,2.30
2018-07-04T02:07:51.058Z,2.60
2018-07-04T02:10:46.444Z,2.50
2018-07-04T02:13:41.288Z,2.20
2018-07-04T02:16:36.409Z,2.50
2018-07-04T02:19:31.505Z,2.50
2018-07-04T02:22:26.651Z,2.00
2018-07-04T02:25:21.527Z,2.30
2018-07-04T02:28:16.798Z,2.42
2018-07-04T02:31:11.941Z,2.50
2018-07-04T02:34:06.589Z,2.27
2018-07-04T02:37:02.401Z,2.13
2018-07-04T02:39:57.304Z,2.60
2018-07-04T02:42:52.126Z,3.33
2018-07-04T02:45:47.362Z,2.73
2018-07-04T02:48:42.227Z,2.80
2018-07-04T02:51:36.963Z,2.12
2018-07-04T02:54:32.912Z,2.80
2018-07-04T02:57:27.790Z,2.50
2018-07-04T03:00:23.065Z,2.60
2018-07-04T03:03:18.393Z,2.10
2018-07-04T03:06:13.316Z,2.60
2018-07-04T03:09:08.209Z,2.63
2018-07-04T03:12:04.923Z,2.60
2018-07-04T03:15:00.047Z,2.50
2018-07-04T03:17:57.412Z,2.63
2018-07-04T03:20:53.049Z,2.73
2018-07-04T03:23:48.063Z,2.40
2018-07-04T03:26:42.911Z,2.40
2018-07-04T03:29:39.074Z,2.40
2018-07-04T03:32:34.148Z,2.72
2018-07-04T03:35:29.081Z,2.90
2018-07-04T03:38:24.153Z,3.10
2018-07-04T03:41:19.276Z,3.20
2018-07-04T03:44:14.454Z,3.07
2018-07-04T03:47:10.185Z,2.72
2018-07-04T03:50:06.930Z,3.23
2018-07-04T03:53:04.611Z,3.00
2018-07-04T03:56:04.128Z,2.77
2018-07-04T03:58:59.732Z,2.60
2018-07-04T04:01:54.942Z,3.20
2018-07-04T04:04:50.090Z,2.23
2018-07-04T04:07:45.553Z,2.67
2018-07-04T04:10:41.324Z,2.57
2018-07-04T04:13:36.826Z,2.50
2018-07-04T04:16:31.724Z,3.40
2018-07-04T04:19:32.136Z,3.10
2018-07-04T04:22:26.968Z,2.63
2018-07-04T04:25:22.955Z,2.70
2018-07-04T04:28:18.108Z,3.03
2018-07-04T04:31:13.833Z,2.33
2018-07-04T04:34:09.293Z,2.53
2018-07-04T04:37:06.769Z,3.00
2018-07-04T04:40:02.635Z,3.30
2018-07-04T04:42:58.956Z,2.67
2018-07-04T04:45:55.462Z,2.60
2018-07-04T04:48:50.805Z,2.40
2018-07-04T04:51:45.891Z,2.60
2018-07-04T04:54:43.308Z,3.05
2018-07-04T04:57:39.294Z,2.60
2018-07-04T05:00:35.224Z,2.53
2018-07-04T05:03:31.318Z,2.60
2018-07-04T05:06:27.278Z,2.80
2018-07-04T05:09:23.033Z,2.87
2018-07-04T05:12:18.518Z,2.30
2018-07-04T05:15:14.718Z,2.77
2018-07-04T05:18:09.874Z,2.00
2018-07-04T05:21:05.182Z,2.22
2018-07-04T05:24:00.739Z,2.53
2018-07-04T05:26:56.609Z,2.17
2018-07-04T05:29:51.887Z,2.50
2018-07-04T05:32:48.251Z,2.30
2018-07-04T05:35:43.483Z,1.87
2018-07-04T05:38:38.347Z,2.87
2018-07-04T05:41:33.273Z,2.62
2018-07-04T05:44:29.690Z,2.60
2018-07-04T05:48:45.007Z,2.50
2018-07-04T05:51:39.913Z,2.30
2018-07-04T05:54:39.073Z,2.60
2018-07-04T05:57:34.119Z,2.30
2018-07-04T06:00:30.504Z,2.25
2018-07-04T06:03:26.456Z,2.53
2018-07-04T06:06:22.145Z,3.72
2018-07-04T06:09:16.888Z,3.97
2018-07-04T06:12:12.977Z,4.73
2018-07-04T06:15:13.623Z,4.20
2018-07-04T06:18:14.646Z,5.07
2018-07-04T06:21:10.332Z,4.13
2018-07-04T06:24:05.212Z,5.83
2018-07-04T06:27:00.208Z,4.20
2018-07-04T06:29:55.606Z,4.93
2018-07-04T06:32:51.367Z,3.00
2018-07-04T06:35:46.325Z,3.90
2018-07-04T06:38:17.905Z,3.30
2018-07-04T06:40:48.960Z,3.77
2018-07-04T06:43:20.205Z,3.90
2018-07-04T06:45:51.821Z,3.25
2018-07-04T06:48:25.658Z,2.77
2018-07-04T06:50:57.528Z,2.85
2018-07-04T06:53:30.842Z,2.67
2018-07-04T06:56:02.672Z,3.33
2018-07-04T06:58:34.513Z,2.55
2018-07-04T07:01:04.727Z,2.47
2018-07-04T07:03:59.662Z,6.27
2018-07-04T07:06:54.944Z,2.30
2018-07-04T07:09:50.413Z,1.90
2018-07-04T07:12:46.268Z,1.53
2018-07-04T07:15:43.665Z,1.67
2018-07-04T07:18:39.189Z,1.70
2018-07-04T07:21:35.233Z,2.10
2018-07-04T07:24:30.891Z,1.80
2018-07-04T07:27:30.407Z,1.60
2018-07-04T07:30:28.329Z,1.70
2018-07-04T07:33:23.394Z,1.70
2018-07-04T07:36:18.124Z,1.80
2018-07-04T07:39:13.608Z,2.10
2018-07-04T07:42:08.729Z,1.93
2018-07-04T07:45:03.845Z,1.93
2018-07-04T07:47:58.533Z,1.73
2018-07-04T07:50:57.701Z,1.50
2018-07-04T07:53:53.369Z,1.60
2018-07-04T07:56:49.133Z,1.70
2018-07-04T07:59:45.720Z,1.50
2018-07-04T08:02:42.226Z,1.60
2018-07-04T08:05:37.434Z,1.50
2018-07-04T08:08:33.253Z,1.50
2018-07-04T08:11:29.599Z,1.60
2018-07-04T08:14:27.966Z,1.40
2018-07-04T08:17:24.334Z,1.27
2018-07-04T08:20:23.518Z,1.47
2018-07-04T08:23:18.369Z,1.30
2018-07-04T08:26:13.565Z,1.50
2018-07-04T08:29:10.193Z,1.47
2018-07-04T08:32:06.027Z,1.60
2018-07-04T08:35:02.193Z,1.30
2018-07-04T08:37:58.677Z,1.83
2018-07-04T08:40:54.257Z,1.70
2018-07-04T08:43:50.446Z,1.27
2018-07-04T08:46:45.887Z,1.60
2018-07-04T08:49:40.605Z,1.50
2018-07-04T08:52:38.239Z,1.50
2018-07-04T08:55:37.462Z,1.63
2018-07-04T08:58:34.066Z,1.70
2018-07-04T09:01:30.553Z,1.60
2018-07-04T09:04:25.497Z,1.80
2018-07-04T09:07:22.328Z,2.20
2018-07-04T09:10:19.702Z,1.93
2018-07-04T09:13:17.411Z,1.87
2018-07-04T09:16:12.439Z,2.00
2018-07-04T09:19:07.733Z,1.87
2018-07-04T09:22:02.685Z,1.70
2018-07-04T09:24:58.591Z,2.13
2018-07-04T09:27:54.856Z,1.90
2018-07-04T09:30:51.046Z,2.00
2018-07-04T09:33:46.630Z,2.20
2018-07-04T09:36:44.313Z,2.50
2018-07-04T09:39:39.650Z,2.63
2018-07-04T09:42:36.572Z,2.80
2018-07-04T09:45:35.493Z,2.47
2018-07-04T09:48:31.508Z,2.83
2018-07-04T09:51:26.832Z,2.30
2018-07-04T09:54:23.290Z,2.20
2018-07-04T09:57:19.933Z,2.37
2018-07-04T10:00:26.447Z,2.20
2018-07-04T10:03:21.617Z,2.30
2018-07-04T10:06:19.553Z,2.55
2018-07-04T10:09:15.313Z,2.13
2018-07-04T10:12:11.002Z,2.40
2018-07-04T10:15:08.808Z,2.60
2018-07-04T10:18:04.408Z,2.30
2018-07-04T10:20:58.958Z,2.73
2018-07-04T10:23:54.312Z,2.20
2018-07-04T10:26:50.443Z,2.47
2018-07-04T10:29:46.211Z,2.23
2018-07-04T10:32:42.243Z,2.43
2018-07-04T10:35:37.839Z,2.10
2018-07-04T10:38:35.529Z,2.33
2018-07-04T10:44:01.217Z,2.40
2018-07-04T10:46:58.235Z,2.10
2018-07-04T10:49:53.694Z,2.60
2018-07-04T10:53:09.826Z,2.10
2018-07-04T10:56:07.228Z,2.67
2018-07-04T10:59:02.230Z,2.43
2018-07-04T11:01:58.438Z,2.93
2018-07-04T11:04:55.340Z,2.93
2018-07-04T11:07:53.423Z,2.30
2018-07-04T11:10:50.663Z,2.57
2018-07-04T11:13:46.782Z,2.70
2018-07-04T11:16:42.597Z,2.57
2018-07-04T11:19:38.899Z,2.63
2018-07-04T11:22:34.030Z,3.10
2018-07-04T11:25:28.905Z,2.83
2018-07-04T11:28:26.825Z,2.70
2018-07-04T11:31:21.638Z,2.83
2018-07-04T11:34:17.502Z,3.03
2018-07-04T11:37:13.058Z,3.33
2018-07-04T11:40:08.864Z,2.97
2018-07-04T11:43:04.636Z,2.97
2018-07-04T11:45:58.767Z,2.50
2018-07-04T11:48:29.743Z,2.67
2018-07-04T11:51:01.496Z,3.40
2018-07-04T11:53:34.062Z,2.90
2018-07-04T11:56:04.120Z,3.20
2018-07-04T11:58:35.137Z,3.73
2018-07-04T12:01:05.390Z,3.58
2018-07-04T12:04:02.277Z,3.57
2018-07-04T12:06:58.208Z,3.40
2018-07-04T12:09:28.573Z,3.33
2018-07-04T12:11:59.433Z,3.00
2018-07-04T12:14:29.858Z,3.57
2018-07-04T12:17:01.104Z,3.50
2018-07-04T12:19:32.297Z,2.92
2018-07-04T12:22:02.881Z,3.20
2018-07-04T12:24:33.453Z,3.07
2018-07-04T12:27:05.752Z,3.15
2018-07-04T12:29:37.769Z,2.87
2018-07-04T12:32:12.406Z,3.27
2018-07-04T12:34:58.510Z,2.60
2018-07-04T12:37:30.614Z,3.20
2018-07-04T12:40:11.799Z,3.30
2018-07-04T12:42:43.684Z,2.90
2018-07-04T12:45:15.441Z,2.50
2018-07-04T12:47:49.628Z,3.07
2018-07-04T12:50:42.222Z,2.60
2018-07-04T12:53:13.089Z,3.00
2018-07-04T12:56:08.294Z,3.27
2018-07-04T12:59:05.217Z,3.20
2018-07-04T13:02:01.865Z,3.00
2018-07-04T13:04:57.597Z,3.43
2018-07-04T13:07:52.424Z,3.53
2018-07-04T13:10:48.896Z,3.97
2018-07-04T13:13:45.344Z,3.90
2018-07-04T13:16:43.252Z,3.73
2018-07-04T13:19:42.622Z,3.97
2018-07-04T13:22:40.773Z,4.33
2018-07-04T13:25:36.633Z,4.03
2018-07-04T13:28:33.145Z,3.90
2018-07-04T13:31:29.011Z,4.03
2018-07-04T13:34:24.528Z,3.90
2018-07-04T13:37:22.387Z,4.03
2018-07-04T13:40:18.707Z,4.77
2018-07-04T13:43:14.507Z,4.20
2018-07-04T13:46:10.347Z,3.50
2018-07-04T13:49:05.462Z,3.43
2018-07-04T13:52:02.162Z,3.43
2018-07-04T13:54:57.956Z,3.77
2018-07-04T13:57:52.782Z,3.93
2018-07-04T14:00:52.633Z,4.40
2018-07-04T14:03:49.272Z,3.67
2018-07-04T14:06:44.269Z,4.00
2018-07-04T14:09:41.323Z,4.43
2018-07-04T14:12:37.420Z,3.47
2018-07-04T14:15:32.955Z,4.23
2018-07-04T14:18:29.728Z,4.20
2018-07-04T14:24:35.531Z,3.87
2018-07-04T14:27:30.779Z,3.67
2018-07-04T14:30:26.150Z,4.00
2018-07-04T14:33:21.050Z,4.28
2018-07-04T14:36:19.262Z,4.23
2018-07-04T14:39:14.333Z,4.22
2018-07-04T14:42:11.543Z,4.00
2018-07-04T14:45:08.312Z,4.53
2018-07-04T14:48:03.557Z,4.07
2018-07-04T14:53:55.949Z,4.47
2018-07-04T14:56:51.722Z,3.90
2018-07-04T14:59:47.880Z,4.73
2018-07-04T15:02:45.090Z,4.37
2018-07-04T15:05:41.443Z,4.57
2018-07-04T15:08:42.712Z,4.10
2018-07-04T15:11:41.616Z,3.73
2018-07-04T15:14:38.348Z,3.87
2018-07-04T15:17:33.702Z,4.33
2018-07-04T15:20:29.285Z,3.90
2018-07-04T15:23:26.487Z,4.50
2018-07-04T15:26:21.370Z,4.10
2018-07-04T15:29:18.168Z,4.20
2018-07-04T15:32:16.121Z,4.33
2018-07-04T15:35:12.400Z,4.50
2018-07-04T15:38:07.293Z,3.80
2018-07-04T15:41:02.853Z,4.17
2018-07-04T15:43:59.220Z,4.70
2018-07-04T15:46:59.414Z,4.20
2018-07-04T15:49:55.377Z,4.25
2018-07-04T15:52:51.463Z,4.10
2018-07-04T15:55:47.470Z,4.20
2018-07-04T15:58:43.190Z,4.20
2018-07-04T16:01:38.394Z,4.63
2018-07-04T16:04:34.012Z,4.53
2018-07-04T16:07:29.669Z,4.50
2018-07-04T16:10:25.615Z,3.97
2018-07-04T16:13:24.664Z,4.17
2018-07-04T16:16:23.448Z,4.53
2018-07-04T16:19:29.573Z,4.80
2018-07-04T16:22:23.632Z,4.83
2018-07-04T16:25:22.515Z,4.90
2018-07-04T16:28:18.277Z,3.90
2018-07-04T16:31:15.065Z,4.07
2018-07-04T16:34:12.284Z,4.50
2018-07-04T16:37:10.289Z,3.93
2018-07-04T16:40:08.464Z,4.63
2018-07-04T16:43:07.522Z,4.28
2018-07-04T16:46:05.232Z,4.30
2018-07-04T16:49:02.405Z,4.62
2018-07-04T16:51:59.795Z,3.80
2018-07-04T16:54:59.049Z,4.17
2018-07-04T16:57:55.918Z,4.20
2018-07-04T17:00:55.324Z,4.57
2018-07-04T17:03:57.932Z,4.37
2018-07-04T17:06:53.968Z,3.60
2018-07-04T17:09:49.692Z,3.97
2018-07-04T17:12:45.325Z,4.43
2018-07-04T17:15:42.552Z,3.50
2018-07-04T17:18:38.054Z,4.27
2018-07-04T17:21:33.086Z,4.07
2018-07-04T17:24:30.249Z,3.87
2018-07-04T17:27:26.214Z,4.87
2018-07-04T17:30:23.045Z,5.20
2018-07-04T17:33:19.913Z,3.83
2018-07-04T17:36:15.242Z,4.30
2018-07-04T17:39:10.541Z,3.43
2018-07-04T17:42:07.607Z,3.70
2018-07-04T17:45:04.602Z,4.25
2018-07-04T17:48:07.292Z,3.70
2018-07-04T17:51:09.346Z,4.03
2018-07-04T17:54:08.841Z,3.80
2018-07-04T17:57:05.178Z,3.80
2018-07-04T18:00:04.527Z,4.23
2018-07-04T18:03:04.686Z,4.60
2018-07-04T18:06:04.862Z,4.00
2018-07-04T18:09:03.363Z,4.47
2018-07-04T18:12:00.065Z,4.80
2018-07-04T18:14:57.019Z,4.10
2018-07-04T18:17:53.512Z,3.60
2018-07-04T18:21:22.469Z,3.78
2018-07-04T18:24:17.518Z,3.90
2018-07-04T18:27:12.782Z,4.17
2018-07-04T18:30:09.311Z,4.17
2018-07-04T18:33:07.604Z,5.37
2018-07-04T18:36:06.188Z,4.67
2018-07-04T18:39:04.922Z,4.03
2018-07-04T18:42:02.789Z,4.53
2018-07-04T18:44:58.204Z,4.23
2018-07-04T18:48:00.242Z,4.43
2018-07-04T18:50:56.339Z,4.20
2018-07-04T18:53:53.263Z,3.23
2018-07-04T18:56:49.056Z,3.90
2018-07-04T18:59:43.829Z,3.67
2018-07-04T19:02:39.474Z,3.80
2018-07-04T19:05:50.673Z,4.03
2018-07-04T19:08:47.024Z,4.00
2018-07-04T19:11:44.723Z,4.25
2018-07-04T19:14:40.604Z,4.25
2018-07-04T19:17:37.007Z,4.37
2018-07-04T19:20:35.493Z,4.50
2018-07-04T19:23:31.456Z,4.53
2018-07-04T19:26:27.374Z,4.47
2018-07-04T19:29:24.062Z,4.73
2018-07-04T19:32:20.009Z,4.70
2018-07-04T19:35:16.601Z,5.20
2018-07-04T19:38:13.773Z,5.03
2018-07-04T19:41:10.042Z,4.73
2018-07-04T19:44:05.818Z,4.23
2018-07-04T19:47:04.491Z,5.03
2018-07-04T19:50:02.543Z,4.83
2018-07-04T19:52:58.315Z,4.67
2018-07-04T19:55:54.576Z,4.80
2018-07-04T19:58:50.923Z,6.13
2018-07-04T20:01:47.864Z,5.07
2018-07-04T20:04:47.155Z,5.13
2018-07-04T20:07:45.985Z,5.43
2018-07-04T20:10:41.275Z,5.37
2018-07-04T20:13:40.440Z,4.90
2018-07-04T20:16:36.857Z,5.17
2018-07-04T20:19:39.694Z,5.30
2018-07-04T20:22:41.166Z,4.80
2018-07-04T20:25:36.158Z,5.93
2018-07-04T20:28:35.240Z,5.37
2018-07-04T20:31:31.249Z,5.40
2018-07-04T20:35:49.214Z,5.53
2018-07-04T20:39:06.783Z,5.23
2018-07-04T20:42:08.400Z,4.83
2018-07-04T20:45:06.066Z,5.13
2018-07-04T20:48:03.011Z,4.80
2018-07-04T20:51:06.556Z,6.27
2018-07-04T20:54:08.823Z,5.47
2018-07-04T20:57:12.011Z,7.07
2018-07-04T21:00:15.611Z,6.30
2018-07-04T21:03:17.443Z,5.37
2018-07-04T21:06:22.414Z,5.57
2018-07-04T21:09:19.595Z,5.50
2018-07-04T21:12:14.816Z,6.20
2018-07-04T21:15:19.105Z,5.90
2018-07-04T21:18:17.517Z,6.17
2018-07-04T21:21:16.781Z,6.03
2018-07-04T21:24:15.397Z,4.73
2018-07-04T21:27:17.661Z,5.87
2018-07-04T21:30:24.812Z,5.97
2018-07-04T21:33:21.179Z,23.33
2018-07-04T21:36:16.429Z,31.33
2018-07-04T21:39:14.440Z,146.03
2018-07-04T21:42:10.503Z,171.10
2018-07-04T21:45:08.052Z,140.07
2018-07-04T21:48:03.435Z,156.77
2018-07-04T21:50:59.908Z,183.32
2018-07-04T21:53:58.673Z,39.37
2018-07-04T21:56:55.689Z,40.83
2018-07-04T21:59:56.737Z,39.45
2018-07-04T22:02:51.921Z,29.50
2018-07-04T22:05:50.252Z,43.67
2018-07-04T22:08:50.513Z,71.73
2018-07-04T22:11:52.757Z,25.27
2018-07-04T22:14:53.762Z,7.67
2018-07-04T22:17:52.246Z,47.10
2018-07-04T22:20:47.717Z,41.90
2018-07-04T22:23:51.361Z,15.73
2018-07-04T22:26:47.155Z,10.23
2018-07-04T22:29:43.732Z,6.18
2018-07-04T22:32:59.063Z,4.00
2018-07-04T22:38:12.869Z,3.87
2018-07-04T22:41:39.294Z,4.43
2018-07-04T22:44:52.817Z,3.53
2018-07-04T22:49:27.684Z,3.83
2018-07-04T22:52:44.672Z,3.30
2018-07-04T22:55:47.141Z,3.63
2018-07-04T22:58:42.552Z,3.87
2018-07-04T23:01:38.014Z,3.83
2018-07-04T23:04:36.204Z,5.07
2018-07-04T23:07:34.954Z,4.70
2018-07-04T23:10:31.329Z,5.33
2018-07-04T23:13:27.658Z,5.78
2018-07-04T23:16:24.178Z,4.43
2018-07-04T23:19:19.487Z,4.30
2018-07-04T23:22:31.150Z,4.40
2018-07-04T23:25:26.933Z,4.77
2018-07-04T23:28:24.496Z,4.23
2018-07-04T23:31:21.209Z,4.63
2018-07-04T23:34:16.748Z,4.68
2018-07-04T23:37:14.929Z,4.07
2018-07-04T23:40:10.237Z,4.00
2018-07-04T23:43:10.258Z,3.90
2018-07-04T23:46:11.708Z,4.22
2018-07-04T23:49:07.821Z,4.00
2018-07-04T23:52:12.255Z,4.37
2018-07-04T23:55:10.511Z,4.20
2018-07-04T23:58:05.849Z,3.87
